sensor_id;sensor_type;location;lat;lon;timestamp;pressure;altitude;pressure_sealevel;temperature;humidity
7309;BME280;3695;53.330;9.876;2023-05-23T00:00:59;107799.38;;;16.53;100.00
7309;BME280;3695;53.330;9.876;2023-05-23T00:03:26;107755.50;;;16.37;100.00
7309;BME280;3695;53.330;9.876;2023-05-23T00:05:55;107771.41;;;16.30;100.00
7309;BME280;3695;53.330;9.876;2023-05-23T00:08:23;107787.88;;;16.30;100.00
7309;BME280;3695;53.330;9.876;2023-05-23T00:10:49;107839.13;;;16.28;100.00
7309;BME280;3695;53.330;9.876;2023-05-23T00:13:16;107863.34;;;16.20;100.00
7309;BME280;3695;53.330;9.876;2023-05-23T00:15:44;107871.97;;;16.13;100.00
7309;BME280;3695;53.330;9.876;2023-05-23T00:18:13;107907.19;;;16.20;100.00
7309;BME280;3695;53.330;9.876;2023-05-23T00:20:41;107938.59;;;16.30;100.00
7309;BME280;3695;53.330;9.876;2023-05-23T00:23:07;108223.16;;;16.40;100.00
7309;BME280;3695;53.330;9.876;2023-05-23T00:25:34;108257.41;;;16.12;100.00
7309;BME280;3695;53.330;9.876;2023-05-23T00:28:01;108296.59;;;16.14;100.00
7309;BME280;3695;53.330;9.876;2023-05-23T00:30:29;108330.38;;;16.33;100.00
7309;BME280;3695;53.330;9.876;2023-05-23T00:32:58;108402.81;;;16.47;100.00
7309;BME280;3695;53.330;9.876;2023-05-23T00:35:25;108438.75;;;16.41;100.00
7309;BME280;3695;53.330;9.876;2023-05-23T00:37:52;108396.59;;;16.43;100.00
7309;BME280;3695;53.330;9.876;2023-05-23T00:40:19;108450.84;;;16.55;100.00
7309;BME280;3695;53.330;9.876;2023-05-23T00:42:46;108520.34;;;16.56;100.00
7309;BME280;3695;53.330;9.876;2023-05-23T00:45:13;108561.78;;;16.48;100.00
7309;BME280;3695;53.330;9.876;2023-05-23T00:47:40;108800.97;;;16.55;100.00
7309;BME280;3695;53.330;9.876;2023-05-23T00:50:10;108859.28;;;16.36;100.00
7309;BME280;3695;53.330;9.876;2023-05-23T00:52:39;108841.69;;;16.20;100.00
7309;BME280;3695;53.330;9.876;2023-05-23T00:55:06;108831.94;;;16.35;100.00
7309;BME280;3695;53.330;9.876;2023-05-23T00:57:33;108808.84;;;15.95;100.00
7309;BME280;3695;53.330;9.876;2023-05-23T01:00:04;108844.25;;;15.77;100.00
7309;BME280;3695;53.330;9.876;2023-05-23T01:02:33;108830.56;;;16.00;100.00
7309;BME280;3695;53.330;9.876;2023-05-23T01:05:02;108778.28;;;15.83;100.00
7309;BME280;3695;53.330;9.876;2023-05-23T01:07:29;108834.91;;;15.82;100.00
7309;BME280;3695;53.330;9.876;2023-05-23T01:09:56;108874.09;;;15.59;100.00
7309;BME280;3695;53.330;9.876;2023-05-23T01:12:28;108953.72;;;15.80;100.00
7309;BME280;3695;53.330;9.876;2023-05-23T01:15:04;109038.75;;;15.47;100.00
7309;BME280;3695;53.330;9.876;2023-05-23T01:17:41;109093.84;;;15.36;100.00
7309;BME280;3695;53.330;9.876;2023-05-23T01:20:10;109099.19;;;15.41;100.00
7309;BME280;3695;53.330;9.876;2023-05-23T01:22:53;109175.19;;;15.64;100.00
7309;BME280;3695;53.330;9.876;2023-05-23T01:25:29;109232.56;;;15.36;100.00
7309;BME280;3695;53.330;9.876;2023-05-23T01:28:01;109300.25;;;15.31;100.00
7309;BME280;3695;53.330;9.876;2023-05-23T01:30:31;109386.97;;;15.29;100.00
7309;BME280;3695;53.330;9.876;2023-05-23T01:32:58;109483.56;;;15.34;100.00
7309;BME280;3695;53.330;9.876;2023-05-23T01:35:26;109543.56;;;15.04;100.00
7309;BME280;3695;53.330;9.876;2023-05-23T01:37:52;109565.13;;;15.20;100.00
7309;BME280;3695;53.330;9.876;2023-05-23T01:40:19;109604.47;;;15.14;100.00
7309;BME280;3695;53.330;9.876;2023-05-23T01:42:46;109617.44;;;15.04;100.00
7309;BME280;3695;53.330;9.876;2023-05-23T01:45:15;109642.13;;;15.01;100.00
7309;BME280;3695;53.330;9.876;2023-05-23T01:47:43;109673.22;;;14.97;100.00
7309;BME280;3695;53.330;9.876;2023-05-23T01:50:11;109658.69;;;14.95;100.00
7309;BME280;3695;53.330;9.876;2023-05-23T01:52:38;109678.84;;;14.91;100.00
7309;BME280;3695;53.330;9.876;2023-05-23T01:55:06;109727.78;;;15.06;100.00
7309;BME280;3695;53.330;9.876;2023-05-23T01:57:35;109728.88;;;14.96;100.00
7309;BME280;3695;53.330;9.876;2023-05-23T02:00:02;109781.56;;;15.07;100.00
7309;BME280;3695;53.330;9.876;2023-05-23T02:02:31;109775.06;;;15.15;100.00
7309;BME280;3695;53.330;9.876;2023-05-23T02:04:58;109811.41;;;15.23;100.00
7309;BME280;3695;53.330;9.876;2023-05-23T02:07:24;109753.56;;;14.93;100.00
7309;BME280;3695;53.330;9.876;2023-05-23T02:09:51;109733.84;;;14.76;100.00
7309;BME280;3695;53.330;9.876;2023-05-23T02:12:17;109727.41;;;14.78;100.00
7309;BME280;3695;53.330;9.876;2023-05-23T02:14:44;109731.81;;;14.87;100.00
7309;BME280;3695;53.330;9.876;2023-05-23T02:17:11;109729.56;;;14.60;100.00
7309;BME280;3695;53.330;9.876;2023-05-23T02:19:40;109751.13;;;14.78;100.00
7309;BME280;3695;53.330;9.876;2023-05-23T02:22:07;109705.50;;;14.80;100.00
7309;BME280;3695;53.330;9.876;2023-05-23T02:24:33;109700.97;;;14.79;100.00
7309;BME280;3695;53.330;9.876;2023-05-23T02:27:00;109774.38;;;15.02;100.00
7309;BME280;3695;53.330;9.876;2023-05-23T02:29:26;109725.72;;;14.71;100.00
7309;BME280;3695;53.330;9.876;2023-05-23T02:31:53;109709.97;;;14.84;100.00
7309;BME280;3695;53.330;9.876;2023-05-23T02:34:19;109682.97;;;14.66;100.00
7309;BME280;3695;53.330;9.876;2023-05-23T02:36:47;109725.19;;;14.99;100.00
7309;BME280;3695;53.330;9.876;2023-05-23T02:39:13;109646.41;;;14.71;100.00
7309;BME280;3695;53.330;9.876;2023-05-23T02:41:40;109658.88;;;14.86;100.00
7309;BME280;3695;53.330;9.876;2023-05-23T02:44:06;109603.56;;;14.72;100.00
7309;BME280;3695;53.330;9.876;2023-05-23T02:46:33;109584.34;;;14.75;100.00
7309;BME280;3695;53.330;9.876;2023-05-23T02:48:59;109588.91;;;14.74;100.00
7309;BME280;3695;53.330;9.876;2023-05-23T02:51:26;109560.81;;;14.65;100.00
7309;BME280;3695;53.330;9.876;2023-05-23T02:53:53;109523.63;;;14.58;100.00
7309;BME280;3695;53.330;9.876;2023-05-23T02:56:20;109525.88;;;14.80;100.00
7309;BME280;3695;53.330;9.876;2023-05-23T02:58:47;109477.00;;;14.64;100.00
7309;BME280;3695;53.330;9.876;2023-05-23T03:01:14;109473.97;;;14.77;100.00
7309;BME280;3695;53.330;9.876;2023-05-23T03:03:40;109487.53;;;14.82;100.00
7309;BME280;3695;53.330;9.876;2023-05-23T03:06:07;109449.59;;;14.67;100.00
7309;BME280;3695;53.330;9.876;2023-05-23T03:08:34;109431.66;;;14.54;100.00
7309;BME280;3695;53.330;9.876;2023-05-23T03:11:02;109407.84;;;14.59;100.00
7309;BME280;3695;53.330;9.876;2023-05-23T03:13:29;109385.81;;;14.65;100.00
7309;BME280;3695;53.330;9.876;2023-05-23T03:15:55;109380.50;;;14.59;100.00
7309;BME280;3695;53.330;9.876;2023-05-23T03:18:22;109372.97;;;14.70;100.00
7309;BME280;3695;53.330;9.876;2023-05-23T03:20:48;109322.88;;;14.68;100.00
7309;BME280;3695;53.330;9.876;2023-05-23T03:23:14;109331.88;;;14.73;100.00
7309;BME280;3695;53.330;9.876;2023-05-23T03:25:41;109328.44;;;14.63;100.00
7309;BME280;3695;53.330;9.876;2023-05-23T03:28:09;109350.94;;;14.76;100.00
7309;BME280;3695;53.330;9.876;2023-05-23T03:30:37;109294.16;;;14.48;100.00
7309;BME280;3695;53.330;9.876;2023-05-23T03:33:03;109214.97;;;14.45;100.00
7309;BME280;3695;53.330;9.876;2023-05-23T03:35:31;109269.19;;;14.64;100.00
7309;BME280;3695;53.330;9.876;2023-05-23T03:37:57;109263.88;;;14.58;100.00
7309;BME280;3695;53.330;9.876;2023-05-23T03:40:23;109214.13;;;14.42;100.00
7309;BME280;3695;53.330;9.876;2023-05-23T03:43:00;109205.19;;;14.35;100.00
7309;BME280;3695;53.330;9.876;2023-05-23T03:45:28;109170.06;;;14.20;100.00
7309;BME280;3695;53.330;9.876;2023-05-23T03:47:54;109153.63;;;14.22;100.00
7309;BME280;3695;53.330;9.876;2023-05-23T03:50:21;109152.47;;;14.30;100.00
7309;BME280;3695;53.330;9.876;2023-05-23T03:52:47;109110.94;;;14.16;100.00
7309;BME280;3695;53.330;9.876;2023-05-23T03:55:14;109058.41;;;14.05;100.00
7309;BME280;3695;53.330;9.876;2023-05-23T03:57:40;109090.97;;;14.12;100.00
7309;BME280;3695;53.330;9.876;2023-05-23T04:00:08;109101.75;;;14.20;100.00
7309;BME280;3695;53.330;9.876;2023-05-23T04:02:37;109093.59;;;14.17;100.00
7309;BME280;3695;53.330;9.876;2023-05-23T04:05:05;109108.84;;;14.27;100.00
7309;BME280;3695;53.330;9.876;2023-05-23T04:07:32;109111.66;;;14.24;100.00
7309;BME280;3695;53.330;9.876;2023-05-23T04:09:58;109122.75;;;14.16;100.00
7309;BME280;3695;53.330;9.876;2023-05-23T04:12:25;109095.06;;;13.96;100.00
7309;BME280;3695;53.330;9.876;2023-05-23T04:14:51;109100.16;;;14.10;100.00
7309;BME280;3695;53.330;9.876;2023-05-23T04:17:18;109070.34;;;14.01;100.00
7309;BME280;3695;53.330;9.876;2023-05-23T04:19:46;109054.78;;;14.04;100.00
7309;BME280;3695;53.330;9.876;2023-05-23T04:22:13;109029.47;;;13.98;100.00
7309;BME280;3695;53.330;9.876;2023-05-23T04:24:39;109025.88;;;13.96;100.00
7309;BME280;3695;53.330;9.876;2023-05-23T04:27:06;109047.19;;;14.15;100.00
7309;BME280;3695;53.330;9.876;2023-05-23T04:29:33;109096.88;;;14.31;100.00
7309;BME280;3695;53.330;9.876;2023-05-23T04:32:00;109035.16;;;13.89;100.00
7309;BME280;3695;53.330;9.876;2023-05-23T04:34:26;109057.19;;;14.16;100.00
7309;BME280;3695;53.330;9.876;2023-05-23T04:36:54;109021.19;;;14.01;100.00
7309;BME280;3695;53.330;9.876;2023-05-23T04:39:21;109021.03;;;14.07;100.00
7309;BME280;3695;53.330;9.876;2023-05-23T04:41:48;108993.16;;;13.94;100.00
7309;BME280;3695;53.330;9.876;2023-05-23T04:44:14;109071.22;;;14.37;100.00
7309;BME280;3695;53.330;9.876;2023-05-23T04:46:41;109043.22;;;14.29;100.00
7309;BME280;3695;53.330;9.876;2023-05-23T04:49:09;109021.09;;;14.04;100.00
7309;BME280;3695;53.330;9.876;2023-05-23T04:51:37;109036.09;;;14.23;100.00
7309;BME280;3695;53.330;9.876;2023-05-23T04:54:05;109033.06;;;14.34;100.00
7309;BME280;3695;53.330;9.876;2023-05-23T04:56:31;108952.81;;;14.04;100.00
7309;BME280;3695;53.330;9.876;2023-05-23T04:58:58;108967.19;;;14.44;100.00
7309;BME280;3695;53.330;9.876;2023-05-23T05:01:24;108200.88;;;14.48;100.00
7309;BME280;3695;53.330;9.876;2023-05-23T05:03:52;108156.03;;;14.31;100.00
7309;BME280;3695;53.330;9.876;2023-05-23T05:06:19;108122.88;;;14.40;100.00
7309;BME280;3695;53.330;9.876;2023-05-23T05:08:45;108139.25;;;14.18;100.00
7309;BME280;3695;53.330;9.876;2023-05-23T05:11:13;108273.88;;;14.22;100.00
7309;BME280;3695;53.330;9.876;2023-05-23T05:13:40;108380.97;;;14.31;100.00
7309;BME280;3695;53.330;9.876;2023-05-23T05:16:06;108564.31;;;14.24;100.00
7309;BME280;3695;53.330;9.876;2023-05-23T05:18:33;108596.59;;;14.11;100.00
7309;BME280;3695;53.330;9.876;2023-05-23T05:20:59;108719.88;;;14.28;100.00
7309;BME280;3695;53.330;9.876;2023-05-23T05:23:26;108813.47;;;14.35;100.00
7309;BME280;3695;53.330;9.876;2023-05-23T05:25:53;108846.66;;;14.23;100.00
7309;BME280;3695;53.330;9.876;2023-05-23T05:28:22;108810.50;;;14.13;100.00
7309;BME280;3695;53.330;9.876;2023-05-23T05:30:48;108803.53;;;14.32;100.00
7309;BME280;3695;53.330;9.876;2023-05-23T05:33:18;108825.94;;;14.45;100.00
7309;BME280;3695;53.330;9.876;2023-05-23T05:35:45;108845.19;;;14.40;100.00
7309;BME280;3695;53.330;9.876;2023-05-23T05:38:11;108780.00;;;14.28;100.00
7309;BME280;3695;53.330;9.876;2023-05-23T05:40:37;108842.06;;;14.54;100.00
7309;BME280;3695;53.330;9.876;2023-05-23T05:43:04;108858.66;;;14.48;100.00
7309;BME280;3695;53.330;9.876;2023-05-23T05:45:32;108883.94;;;14.55;100.00
7309;BME280;3695;53.330;9.876;2023-05-23T05:47:58;108875.94;;;14.48;100.00
7309;BME280;3695;53.330;9.876;2023-05-23T05:50:24;108892.16;;;14.55;100.00
7309;BME280;3695;53.330;9.876;2023-05-23T05:52:51;108808.50;;;14.20;100.00
7309;BME280;3695;53.330;9.876;2023-05-23T05:55:17;108806.56;;;14.53;100.00
7309;BME280;3695;53.330;9.876;2023-05-23T05:57:44;108814.97;;;14.46;100.00
7309;BME280;3695;53.330;9.876;2023-05-23T06:00:12;108862.03;;;14.56;100.00
7309;BME280;3695;53.330;9.876;2023-05-23T06:02:41;108894.03;;;14.53;100.00
7309;BME280;3695;53.330;9.876;2023-05-23T06:05:09;108862.72;;;14.33;100.00
7309;BME280;3695;53.330;9.876;2023-05-23T06:07:36;108854.78;;;14.55;100.00
7309;BME280;3695;53.330;9.876;2023-05-23T06:10:03;108884.50;;;14.66;100.00
7309;BME280;3695;53.330;9.876;2023-05-23T06:12:30;108871.50;;;14.44;100.00
7309;BME280;3695;53.330;9.876;2023-05-23T06:14:56;108945.53;;;14.68;100.00
7309;BME280;3695;53.330;9.876;2023-05-23T06:17:23;108935.88;;;14.55;100.00
7309;BME280;3695;53.330;9.876;2023-05-23T06:19:51;108979.34;;;14.64;100.00
7309;BME280;3695;53.330;9.876;2023-05-23T06:22:17;108995.41;;;14.76;100.00
7309;BME280;3695;53.330;9.876;2023-05-23T06:24:44;109033.78;;;14.73;100.00
7309;BME280;3695;53.330;9.876;2023-05-23T06:27:10;108955.16;;;14.81;100.00
7309;BME280;3695;53.330;9.876;2023-05-23T06:29:37;108937.69;;;14.56;100.00
7309;BME280;3695;53.330;9.876;2023-05-23T06:32:04;108910.59;;;14.48;100.00
7309;BME280;3695;53.330;9.876;2023-05-23T06:34:30;108895.81;;;14.54;100.00
7309;BME280;3695;53.330;9.876;2023-05-23T06:36:58;108883.84;;;14.58;100.00
7309;BME280;3695;53.330;9.876;2023-05-23T06:39:25;108850.19;;;14.56;100.00
7309;BME280;3695;53.330;9.876;2023-05-23T06:41:53;108859.34;;;14.55;100.00
7309;BME280;3695;53.330;9.876;2023-05-23T06:44:20;108899.13;;;14.65;100.00
7309;BME280;3695;53.330;9.876;2023-05-23T06:46:46;108906.72;;;14.55;100.00
7309;BME280;3695;53.330;9.876;2023-05-23T06:49:13;108916.41;;;14.65;100.00
7309;BME280;3695;53.330;9.876;2023-05-23T06:51:40;108886.03;;;14.76;100.00
7309;BME280;3695;53.330;9.876;2023-05-23T06:54:08;108916.34;;;14.68;100.00
7309;BME280;3695;53.330;9.876;2023-05-23T06:56:34;108988.16;;;14.75;100.00
7309;BME280;3695;53.330;9.876;2023-05-23T06:59:00;109022.16;;;14.65;100.00
7309;BME280;3695;53.330;9.876;2023-05-23T07:01:27;109045.91;;;14.63;100.00
7309;BME280;3695;53.330;9.876;2023-05-23T07:03:53;109035.81;;;14.65;100.00
7309;BME280;3695;53.330;9.876;2023-05-23T07:06:20;109050.69;;;14.55;100.00
7309;BME280;3695;53.330;9.876;2023-05-23T07:08:46;109048.56;;;14.33;100.00
7309;BME280;3695;53.330;9.876;2023-05-23T07:11:14;109125.38;;;14.57;100.00
7309;BME280;3695;53.330;9.876;2023-05-23T07:13:41;109192.25;;;14.42;100.00
7309;BME280;3695;53.330;9.876;2023-05-23T07:16:07;109351.91;;;14.33;100.00
7309;BME280;3695;53.330;9.876;2023-05-23T07:18:33;109464.84;;;14.35;100.00
7309;BME280;3695;53.330;9.876;2023-05-23T07:21:00;109514.91;;;14.37;100.00
7309;BME280;3695;53.330;9.876;2023-05-23T07:23:31;109497.94;;;14.20;100.00
7309;BME280;3695;53.330;9.876;2023-05-23T07:25:57;108406.75;;;14.24;100.00
7309;BME280;3695;53.330;9.876;2023-05-23T07:28:25;106246.91;;;14.43;100.00
7309;BME280;3695;53.330;9.876;2023-05-23T07:30:52;105564.69;;;14.37;100.00
7309;BME280;3695;53.330;9.876;2023-05-23T07:33:18;105355.88;;;14.53;100.00
7309;BME280;3695;53.330;9.876;2023-05-23T07:35:45;105027.72;;;14.38;100.00
7309;BME280;3695;53.330;9.876;2023-05-23T07:38:12;104838.38;;;14.29;100.00
7309;BME280;3695;53.330;9.876;2023-05-23T07:40:38;104659.34;;;14.36;100.00
7309;BME280;3695;53.330;9.876;2023-05-23T07:43:05;104466.09;;;14.22;100.00
7309;BME280;3695;53.330;9.876;2023-05-23T07:45:33;104316.16;;;14.21;100.00
7309;BME280;3695;53.330;9.876;2023-05-23T07:47:59;104229.34;;;14.42;100.00
7309;BME280;3695;53.330;9.876;2023-05-23T07:50:26;104101.06;;;14.16;100.00
7309;BME280;3695;53.330;9.876;2023-05-23T07:52:52;103976.31;;;14.26;100.00
7309;BME280;3695;53.330;9.876;2023-05-23T07:55:19;103908.53;;;14.05;100.00
7309;BME280;3695;53.330;9.876;2023-05-23T07:57:45;103843.28;;;14.20;100.00
7309;BME280;3695;53.330;9.876;2023-05-23T08:00:13;103752.91;;;14.39;100.00
7309;BME280;3695;53.330;9.876;2023-05-23T08:02:41;103632.84;;;14.39;100.00
7309;BME280;3695;53.330;9.876;2023-05-23T08:05:08;103541.09;;;14.38;100.00
7309;BME280;3695;53.330;9.876;2023-05-23T08:07:35;103445.31;;;14.25;100.00
7309;BME280;3695;53.330;9.876;2023-05-23T08:10:01;103330.53;;;14.58;100.00
7309;BME280;3695;53.330;9.876;2023-05-23T08:12:28;103272.16;;;14.59;100.00
7309;BME280;3695;53.330;9.876;2023-05-23T08:14:54;103223.41;;;14.56;100.00
7309;BME280;3695;53.330;9.876;2023-05-23T08:17:21;103182.94;;;14.44;100.00
7309;BME280;3695;53.330;9.876;2023-05-23T08:19:48;103147.81;;;14.41;100.00
7309;BME280;3695;53.330;9.876;2023-05-23T08:22:15;103159.75;;;14.40;100.00
7309;BME280;3695;53.330;9.876;2023-05-23T08:24:41;103187.22;;;14.39;100.00
7309;BME280;3695;53.330;9.876;2023-05-23T08:27:07;103212.84;;;13.92;100.00
7309;BME280;3695;53.330;9.876;2023-05-23T08:29:34;103273.78;;;13.76;100.00
7309;BME280;3695;53.330;9.876;2023-05-23T08:32:01;103342.59;;;13.70;100.00
7309;BME280;3695;53.330;9.876;2023-05-23T08:34:27;103423.28;;;13.96;100.00
7309;BME280;3695;53.330;9.876;2023-05-23T08:36:55;103496.28;;;13.61;100.00
7309;BME280;3695;53.330;9.876;2023-05-23T08:39:22;103534.78;;;13.58;100.00
7309;BME280;3695;53.330;9.876;2023-05-23T08:41:48;103567.66;;;13.73;100.00
7309;BME280;3695;53.330;9.876;2023-05-23T08:44:15;103599.16;;;13.59;100.00
7309;BME280;3695;53.330;9.876;2023-05-23T08:46:44;103618.75;;;13.71;100.00
7309;BME280;3695;53.330;9.876;2023-05-23T08:49:12;103631.19;;;13.57;100.00
7309;BME280;3695;53.330;9.876;2023-05-23T08:51:43;103632.63;;;13.19;100.00
7309;BME280;3695;53.330;9.876;2023-05-23T08:54:11;103639.22;;;13.16;100.00
7309;BME280;3695;53.330;9.876;2023-05-23T08:56:38;103701.63;;;13.28;100.00
7309;BME280;3695;53.330;9.876;2023-05-23T08:59:07;103766.25;;;13.17;100.00
7309;BME280;3695;53.330;9.876;2023-05-23T09:01:34;103804.81;;;13.31;100.00
7309;BME280;3695;53.330;9.876;2023-05-23T09:04:01;103836.63;;;13.04;100.00
7309;BME280;3695;53.330;9.876;2023-05-23T09:06:29;103893.97;;;13.03;100.00
7309;BME280;3695;53.330;9.876;2023-05-23T09:08:56;103980.88;;;12.96;100.00
7309;BME280;3695;53.330;9.876;2023-05-23T09:11:24;104054.16;;;13.07;100.00
7309;BME280;3695;53.330;9.876;2023-05-23T09:13:50;104108.59;;;13.17;100.00
7309;BME280;3695;53.330;9.876;2023-05-23T09:16:17;104133.38;;;12.96;100.00
7309;BME280;3695;53.330;9.876;2023-05-23T09:18:45;104149.38;;;12.72;100.00
7309;BME280;3695;53.330;9.876;2023-05-23T09:21:12;104183.34;;;12.77;100.00
7309;BME280;3695;53.330;9.876;2023-05-23T09:23:40;104196.81;;;12.69;100.00
7309;BME280;3695;53.330;9.876;2023-05-23T09:26:08;104217.78;;;12.49;100.00
7309;BME280;3695;53.330;9.876;2023-05-23T09:28:37;104207.78;;;12.50;100.00
7309;BME280;3695;53.330;9.876;2023-05-23T09:31:05;104167.97;;;12.49;100.00
7309;BME280;3695;53.330;9.876;2023-05-23T09:33:35;104102.78;;;12.75;100.00
7309;BME280;3695;53.330;9.876;2023-05-23T09:36:03;104027.56;;;12.56;100.00
7309;BME280;3695;53.330;9.876;2023-05-23T09:38:30;103998.41;;;12.48;100.00
7309;BME280;3695;53.330;9.876;2023-05-23T09:40:58;103928.59;;;12.39;100.00
7309;BME280;3695;53.330;9.876;2023-05-23T09:43:24;103846.66;;;12.60;100.00
7309;BME280;3695;53.330;9.876;2023-05-23T09:45:52;103771.56;;;12.49;100.00
7309;BME280;3695;53.330;9.876;2023-05-23T09:48:27;103663.41;;;12.43;100.00
7309;BME280;3695;53.330;9.876;2023-05-23T09:50:53;103604.44;;;12.52;100.00
7309;BME280;3695;53.330;9.876;2023-05-23T09:53:20;103532.28;;;12.40;100.00
7309;BME280;3695;53.330;9.876;2023-05-23T09:55:48;103472.81;;;12.53;100.00
7309;BME280;3695;53.330;9.876;2023-05-23T09:58:16;103413.16;;;12.59;100.00
7309;BME280;3695;53.330;9.876;2023-05-23T10:00:45;103365.50;;;12.31;100.00
7309;BME280;3695;53.330;9.876;2023-05-23T10:03:14;103299.69;;;12.27;100.00
7309;BME280;3695;53.330;9.876;2023-05-23T10:05:44;103196.53;;;12.50;100.00
7309;BME280;3695;53.330;9.876;2023-05-23T10:08:13;103136.00;;;12.56;100.00
7309;BME280;3695;53.330;9.876;2023-05-23T10:14:00;102936.16;;;12.28;100.00
7309;BME280;3695;53.330;9.876;2023-05-23T10:16:31;102865.34;;;12.21;100.00
7309;BME280;3695;53.330;9.876;2023-05-23T10:19:10;102850.78;;;12.14;100.00
7309;BME280;3695;53.330;9.876;2023-05-23T10:21:42;102849.47;;;12.02;100.00
7309;BME280;3695;53.330;9.876;2023-05-23T10:24:10;102827.97;;;11.92;100.00
7309;BME280;3695;53.330;9.876;2023-05-23T10:26:37;102814.59;;;12.14;100.00
7309;BME280;3695;53.330;9.876;2023-05-23T10:29:05;102797.72;;;11.95;100.00
7309;BME280;3695;53.330;9.876;2023-05-23T10:31:32;102784.97;;;11.96;100.00
7309;BME280;3695;53.330;9.876;2023-05-23T10:34:04;102791.63;;;11.93;100.00
7309;BME280;3695;53.330;9.876;2023-05-23T10:36:39;102798.38;;;12.51;100.00
7309;BME280;3695;53.330;9.876;2023-05-23T10:39:13;102733.28;;;12.27;100.00
7309;BME280;3695;53.330;9.876;2023-05-23T10:41:47;102746.63;;;12.14;100.00
7309;BME280;3695;53.330;9.876;2023-05-23T10:44:22;102753.13;;;12.36;100.00
7309;BME280;3695;53.330;9.876;2023-05-23T10:46:51;102777.91;;;11.87;100.00
7309;BME280;3695;53.330;9.876;2023-05-23T10:49:19;102786.38;;;12.15;100.00
7309;BME280;3695;53.330;9.876;2023-05-23T10:51:49;102786.66;;;11.97;100.00
7309;BME280;3695;53.330;9.876;2023-05-23T10:54:17;102787.69;;;11.96;100.00
7309;BME280;3695;53.330;9.876;2023-05-23T10:56:45;102795.25;;;12.09;100.00
7309;BME280;3695;53.330;9.876;2023-05-23T10:59:18;102823.41;;;12.16;100.00
7309;BME280;3695;53.330;9.876;2023-05-23T11:01:45;102831.31;;;12.56;100.00
7309;BME280;3695;53.330;9.876;2023-05-23T11:04:12;102847.31;;;11.97;100.00
7309;BME280;3695;53.330;9.876;2023-05-23T11:06:41;102873.13;;;11.93;100.00
7309;BME280;3695;53.330;9.876;2023-05-23T11:09:10;102925.28;;;12.28;100.00
7309;BME280;3695;53.330;9.876;2023-05-23T11:11:53;103176.16;;;11.89;100.00
7309;BME280;3695;53.330;9.876;2023-05-23T11:14:31;103229.16;;;12.18;100.00
7309;BME280;3695;53.330;9.876;2023-05-23T11:16:58;103338.31;;;12.39;100.00
7309;BME280;3695;53.330;9.876;2023-05-23T11:19:26;103401.44;;;12.75;100.00
7309;BME280;3695;53.330;9.876;2023-05-23T11:21:57;103789.59;;;12.50;100.00
7309;BME280;3695;53.330;9.876;2023-05-23T11:24:47;104155.97;;;12.79;100.00
7309;BME280;3695;53.330;9.876;2023-05-23T11:27:14;104389.50;;;12.46;100.00
7309;BME280;3695;53.330;9.876;2023-05-23T11:29:44;104615.22;;;12.88;100.00
7309;BME280;3695;53.330;9.876;2023-05-23T11:32:11;104744.75;;;12.81;100.00
7309;BME280;3695;53.330;9.876;2023-05-23T11:34:38;104935.63;;;12.78;100.00
7309;BME280;3695;53.330;9.876;2023-05-23T11:37:06;105290.59;;;13.33;100.00
7309;BME280;3695;53.330;9.876;2023-05-23T11:39:33;104238.09;;;13.39;100.00
7309;BME280;3695;53.330;9.876;2023-05-23T11:42:00;104133.59;;;13.03;100.00
7309;BME280;3695;53.330;9.876;2023-05-23T11:44:26;104146.38;;;13.30;100.00
7309;BME280;3695;53.330;9.876;2023-05-23T11:47:00;104154.94;;;13.07;100.00
7309;BME280;3695;53.330;9.876;2023-05-23T11:49:28;104159.97;;;13.02;100.00
7309;BME280;3695;53.330;9.876;2023-05-23T11:51:55;104159.38;;;12.81;100.00
7309;BME280;3695;53.330;9.876;2023-05-23T11:54:23;104189.66;;;13.33;100.00
7309;BME280;3695;53.330;9.876;2023-05-23T11:56:50;104071.59;;;13.14;100.00
7309;BME280;3695;53.330;9.876;2023-05-23T11:59:17;104126.44;;;13.47;100.00
7309;BME280;3695;53.330;9.876;2023-05-23T12:01:43;104140.69;;;13.41;100.00
7309;BME280;3695;53.330;9.876;2023-05-23T12:04:10;104146.81;;;12.98;100.00
7309;BME280;3695;53.330;9.876;2023-05-23T12:06:37;104243.19;;;13.14;100.00
7309;BME280;3695;53.330;9.876;2023-05-23T12:09:04;104379.81;;;13.94;100.00
7309;BME280;3695;53.330;9.876;2023-05-23T12:11:32;104393.91;;;14.34;100.00
7309;BME280;3695;53.330;9.876;2023-05-23T12:13:59;104425.09;;;14.04;100.00
7309;BME280;3695;53.330;9.876;2023-05-23T12:16:30;104474.56;;;13.92;100.00
7309;BME280;3695;53.330;9.876;2023-05-23T12:18:57;104432.19;;;13.60;100.00
7309;BME280;3695;53.330;9.876;2023-05-23T12:21:24;104541.84;;;13.54;100.00
7309;BME280;3695;53.330;9.876;2023-05-23T12:23:51;104504.88;;;13.32;100.00
7309;BME280;3695;53.330;9.876;2023-05-23T12:26:18;104675.22;;;14.04;100.00
7309;BME280;3695;53.330;9.876;2023-05-23T12:28:46;104577.41;;;13.72;100.00
7309;BME280;3695;53.330;9.876;2023-05-23T12:31:15;104617.28;;;13.82;100.00
7309;BME280;3695;53.330;9.876;2023-05-23T12:33:43;104723.13;;;14.35;100.00
7309;BME280;3695;53.330;9.876;2023-05-23T12:36:10;104766.50;;;14.58;100.00
7309;BME280;3695;53.330;9.876;2023-05-23T12:38:36;104851.72;;;15.18;100.00
7309;BME280;3695;53.330;9.876;2023-05-23T12:41:09;104757.47;;;14.94;100.00
7309;BME280;3695;53.330;9.876;2023-05-23T12:43:37;104737.19;;;14.50;100.00
7309;BME280;3695;53.330;9.876;2023-05-23T12:46:05;104891.16;;;15.15;100.00
7309;BME280;3695;53.330;9.876;2023-05-23T12:48:31;104595.72;;;13.89;100.00
7309;BME280;3695;53.330;9.876;2023-05-23T12:50:58;104748.59;;;14.07;100.00
7309;BME280;3695;53.330;9.876;2023-05-23T12:53:25;104829.75;;;14.43;100.00
7309;BME280;3695;53.330;9.876;2023-05-23T12:55:52;104870.28;;;14.67;100.00
7309;BME280;3695;53.330;9.876;2023-05-23T12:58:18;104755.16;;;14.53;100.00
7309;BME280;3695;53.330;9.876;2023-05-23T13:00:45;104787.50;;;14.47;100.00
7309;BME280;3695;53.330;9.876;2023-05-23T13:03:12;104696.75;;;14.07;100.00
7309;BME280;3695;53.330;9.876;2023-05-23T13:05:39;104715.56;;;14.00;100.00